sensor_id;sensor_type;location;lat;lon;timestamp;P1;durP1;ratioP1;P2;durP2;ratioP2
3465;SDS011;1747;48.884;9.160;2022-07-29T00:01:49;8.70;;;4.93;;
3465;SDS011;1747;48.884;9.160;2022-07-29T00:04:17;6.03;;;4.85;;
3465;SDS011;1747;48.884;9.160;2022-07-29T00:06:44;9.25;;;5.05;;
3465;SDS011;1747;48.884;9.160;2022-07-29T00:09:12;6.05;;;4.93;;
3465;SDS011;1747;48.884;9.160;2022-07-29T00:11:39;5.68;;;4.97;;
3465;SDS011;1747;48.884;9.160;2022-07-29T00:14:06;6.47;;;4.68;;
3465;SDS011;1747;48.884;9.160;2022-07-29T00:16:33;8.05;;;5.60;;
3465;SDS011;1747;48.884;9.160;2022-07-29T00:19:00;10.15;;;5.50;;
3465;SDS011;1747;48.884;9.160;2022-07-29T00:21:27;8.50;;;6.28;;
3465;SDS011;1747;48.884;9.160;2022-07-29T00:23:53;7.13;;;6.25;;
3465;SDS011;1747;48.884;9.160;2022-07-29T00:26:22;7.28;;;6.13;;
3465;SDS011;1747;48.884;9.160;2022-07-29T00:28:48;8.40;;;5.95;;
3465;SDS011;1747;48.884;9.160;2022-07-29T00:31:15;9.38;;;6.22;;
3465;SDS011;1747;48.884;9.160;2022-07-29T00:33:42;8.77;;;5.93;;
3465;SDS011;1747;48.884;9.160;2022-07-29T00:36:09;6.43;;;5.80;;
3465;SDS011;1747;48.884;9.160;2022-07-29T00:38:36;8.68;;;5.97;;
3465;SDS011;1747;48.884;9.160;2022-07-29T00:41:03;6.47;;;5.57;;
3465;SDS011;1747;48.884;9.160;2022-07-29T00:43:31;8.68;;;5.90;;
3465;SDS011;1747;48.884;9.160;2022-07-29T00:45:58;9.65;;;6.00;;
3465;SDS011;1747;48.884;9.160;2022-07-29T00:48:25;7.35;;;5.70;;
3465;SDS011;1747;48.884;9.160;2022-07-29T00:50:51;6.60;;;5.80;;
3465;SDS011;1747;48.884;9.160;2022-07-29T00:53:19;7.70;;;5.68;;
3465;SDS011;1747;48.884;9.160;2022-07-29T00:55:47;6.43;;;5.43;;
3465;SDS011;1747;48.884;9.160;2022-07-29T00:58:14;6.50;;;5.13;;
3465;SDS011;1747;48.884;9.160;2022-07-29T01:00:42;6.90;;;5.18;;
3465;SDS011;1747;48.884;9.160;2022-07-29T01:03:09;7.40;;;5.47;;
3465;SDS011;1747;48.884;9.160;2022-07-29T01:05:36;7.07;;;5.53;;
3465;SDS011;1747;48.884;9.160;2022-07-29T01:08:04;7.63;;;4.78;;
3465;SDS011;1747;48.884;9.160;2022-07-29T01:10:32;7.70;;;5.90;;
3465;SDS011;1747;48.884;9.160;2022-07-29T01:13:02;7.32;;;5.72;;
3465;SDS011;1747;48.884;9.160;2022-07-29T01:15:29;9.60;;;6.05;;
3465;SDS011;1747;48.884;9.160;2022-07-29T01:18:01;11.15;;;6.18;;
3465;SDS011;1747;48.884;9.160;2022-07-29T01:20:37;6.90;;;5.88;;
3465;SDS011;1747;48.884;9.160;2022-07-29T01:26:21;8.00;;;5.55;;
3465;SDS011;1747;48.884;9.160;2022-07-29T01:29:03;7.60;;;6.05;;
3465;SDS011;1747;48.884;9.160;2022-07-29T01:31:38;6.95;;;5.70;;
3465;SDS011;1747;48.884;9.160;2022-07-29T01:34:11;11.45;;;5.78;;
3465;SDS011;1747;48.884;9.160;2022-07-29T01:36:44;8.18;;;6.18;;
3465;SDS011;1747;48.884;9.160;2022-07-29T01:39:17;7.55;;;5.70;;
3465;SDS011;1747;48.884;9.160;2022-07-29T01:41:49;6.32;;;5.13;;
3465;SDS011;1747;48.884;9.160;2022-07-29T01:44:23;9.63;;;6.05;;
3465;SDS011;1747;48.884;9.160;2022-07-29T01:46:58;7.07;;;5.60;;
3465;SDS011;1747;48.884;9.160;2022-07-29T01:49:28;7.30;;;5.38;;
3465;SDS011;1747;48.884;9.160;2022-07-29T01:51:59;7.90;;;5.63;;
3465;SDS011;1747;48.884;9.160;2022-07-29T01:54:30;9.23;;;5.30;;
3465;SDS011;1747;48.884;9.160;2022-07-29T01:57:01;6.88;;;5.60;;
3465;SDS011;1747;48.884;9.160;2022-07-29T01:59:32;7.65;;;5.97;;
3465;SDS011;1747;48.884;9.160;2022-07-29T02:02:01;9.60;;;5.47;;
3465;SDS011;1747;48.884;9.160;2022-07-29T02:04:28;7.18;;;5.97;;
3465;SDS011;1747;48.884;9.160;2022-07-29T02:06:58;9.18;;;5.90;;
3465;SDS011;1747;48.884;9.160;2022-07-29T02:09:31;7.28;;;5.82;;
3465;SDS011;1747;48.884;9.160;2022-07-29T02:12:02;7.78;;;6.07;;
3465;SDS011;1747;48.884;9.160;2022-07-29T02:14:33;7.95;;;5.45;;
3465;SDS011;1747;48.884;9.160;2022-07-29T02:17:03;8.63;;;6.07;;
3465;SDS011;1747;48.884;9.160;2022-07-29T02:19:30;7.43;;;5.70;;
3465;SDS011;1747;48.884;9.160;2022-07-29T02:21:59;7.40;;;5.72;;
3465;SDS011;1747;48.884;9.160;2022-07-29T02:24:26;7.03;;;5.85;;
3465;SDS011;1747;48.884;9.160;2022-07-29T02:26:55;6.10;;;5.50;;
3465;SDS011;1747;48.884;9.160;2022-07-29T02:29:24;9.32;;;5.45;;
3465;SDS011;1747;48.884;9.160;2022-07-29T02:31:55;8.43;;;5.90;;
3465;SDS011;1747;48.884;9.160;2022-07-29T02:34:25;7.45;;;6.05;;
3465;SDS011;1747;48.884;9.160;2022-07-29T02:36:53;8.60;;;5.60;;
3465;SDS011;1747;48.884;9.160;2022-07-29T02:39:21;6.47;;;5.88;;
3465;SDS011;1747;48.884;9.160;2022-07-29T02:41:51;8.38;;;5.65;;
3465;SDS011;1747;48.884;9.160;2022-07-29T02:44:24;9.95;;;5.60;;
3465;SDS011;1747;48.884;9.160;2022-07-29T02:46:52;6.18;;;5.43;;
3465;SDS011;1747;48.884;9.160;2022-07-29T02:49:29;7.80;;;5.65;;
3465;SDS011;1747;48.884;9.160;2022-07-29T02:52:01;6.30;;;5.30;;
3465;SDS011;1747;48.884;9.160;2022-07-29T02:54:31;7.40;;;5.90;;
3465;SDS011;1747;48.884;9.160;2022-07-29T02:57:06;8.45;;;5.90;;
3465;SDS011;1747;48.884;9.160;2022-07-29T02:59:40;7.88;;;5.47;;
3465;SDS011;1747;48.884;9.160;2022-07-29T03:02:09;5.90;;;5.22;;
3465;SDS011;1747;48.884;9.160;2022-07-29T03:04:38;5.82;;;5.22;;
3465;SDS011;1747;48.884;9.160;2022-07-29T03:07:08;10.13;;;5.43;;
3465;SDS011;1747;48.884;9.160;2022-07-29T03:09:37;6.18;;;5.57;;
3465;SDS011;1747;48.884;9.160;2022-07-29T03:12:04;8.05;;;5.45;;
3465;SDS011;1747;48.884;9.160;2022-07-29T03:14:32;7.45;;;5.22;;
3465;SDS011;1747;48.884;9.160;2022-07-29T03:17:00;6.40;;;5.68;;
3465;SDS011;1747;48.884;9.160;2022-07-29T03:19:28;8.48;;;5.20;;
3465;SDS011;1747;48.884;9.160;2022-07-29T03:21:57;5.93;;;5.07;;
3465;SDS011;1747;48.884;9.160;2022-07-29T03:24:28;7.40;;;5.82;;
3465;SDS011;1747;48.884;9.160;2022-07-29T03:29:41;7.45;;;5.70;;
3465;SDS011;1747;48.884;9.160;2022-07-29T03:32:08;5.78;;;5.18;;
3465;SDS011;1747;48.884;9.160;2022-07-29T03:34:35;7.78;;;5.68;;
3465;SDS011;1747;48.884;9.160;2022-07-29T03:37:05;11.43;;;5.30;;
3465;SDS011;1747;48.884;9.160;2022-07-29T03:39:33;7.93;;;5.70;;
3465;SDS011;1747;48.884;9.160;2022-07-29T03:42:04;9.70;;;5.13;;
3465;SDS011;1747;48.884;9.160;2022-07-29T03:44:34;6.97;;;6.20;;
3465;SDS011;1747;48.884;9.160;2022-07-29T03:47:02;6.50;;;5.63;;
3465;SDS011;1747;48.884;9.160;2022-07-29T03:49:31;6.32;;;5.70;;
3465;SDS011;1747;48.884;9.160;2022-07-29T03:52:00;6.45;;;4.95;;
3465;SDS011;1747;48.884;9.160;2022-07-29T03:54:29;7.80;;;6.00;;
3465;SDS011;1747;48.884;9.160;2022-07-29T03:56:56;8.90;;;5.70;;
3465;SDS011;1747;48.884;9.160;2022-07-29T03:59:25;8.25;;;6.18;;
3465;SDS011;1747;48.884;9.160;2022-07-29T04:01:53;7.45;;;5.20;;
3465;SDS011;1747;48.884;9.160;2022-07-29T04:04:22;6.18;;;5.57;;
3465;SDS011;1747;48.884;9.160;2022-07-29T04:06:49;6.45;;;5.55;;
3465;SDS011;1747;48.884;9.160;2022-07-29T04:09:16;6.93;;;5.90;;
3465;SDS011;1747;48.884;9.160;2022-07-29T04:11:44;6.70;;;5.60;;
3465;SDS011;1747;48.884;9.160;2022-07-29T04:14:11;7.18;;;5.97;;
3465;SDS011;1747;48.884;9.160;2022-07-29T04:16:38;7.80;;;6.63;;
3465;SDS011;1747;48.884;9.160;2022-07-29T04:19:05;6.72;;;6.03;;
3465;SDS011;1747;48.884;9.160;2022-07-29T04:21:36;7.35;;;6.35;;
3465;SDS011;1747;48.884;9.160;2022-07-29T04:24:03;8.13;;;6.28;;
3465;SDS011;1747;48.884;9.160;2022-07-29T04:26:31;8.82;;;6.60;;
3465;SDS011;1747;48.884;9.160;2022-07-29T04:28:59;8.45;;;6.10;;
3465;SDS011;1747;48.884;9.160;2022-07-29T04:31:26;11.27;;;6.45;;
3465;SDS011;1747;48.884;9.160;2022-07-29T04:33:53;8.25;;;5.72;;
3465;SDS011;1747;48.884;9.160;2022-07-29T04:36:20;11.65;;;6.65;;
3465;SDS011;1747;48.884;9.160;2022-07-29T04:38:47;6.57;;;5.85;;
3465;SDS011;1747;48.884;9.160;2022-07-29T04:41:13;7.85;;;6.00;;
3465;SDS011;1747;48.884;9.160;2022-07-29T04:43:40;8.65;;;6.25;;
3465;SDS011;1747;48.884;9.160;2022-07-29T04:46:08;8.32;;;6.35;;
3465;SDS011;1747;48.884;9.160;2022-07-29T04:48:35;7.20;;;6.50;;
3465;SDS011;1747;48.884;9.160;2022-07-29T04:51:02;7.55;;;6.43;;
3465;SDS011;1747;48.884;9.160;2022-07-29T04:53:29;7.88;;;6.25;;
3465;SDS011;1747;48.884;9.160;2022-07-29T04:55:56;8.48;;;6.63;;
3465;SDS011;1747;48.884;9.160;2022-07-29T04:58:23;9.32;;;6.63;;
3465;SDS011;1747;48.884;9.160;2022-07-29T05:00:50;10.10;;;7.13;;
3465;SDS011;1747;48.884;9.160;2022-07-29T05:03:18;8.15;;;6.72;;
3465;SDS011;1747;48.884;9.160;2022-07-29T05:05:45;8.45;;;7.07;;
3465;SDS011;1747;48.884;9.160;2022-07-29T05:08:12;7.70;;;6.95;;
3465;SDS011;1747;48.884;9.160;2022-07-29T05:10:38;10.25;;;6.55;;
3465;SDS011;1747;48.884;9.160;2022-07-29T05:13:05;8.38;;;7.57;;
3465;SDS011;1747;48.884;9.160;2022-07-29T05:15:32;9.93;;;7.95;;
3465;SDS011;1747;48.884;9.160;2022-07-29T05:18:00;8.73;;;7.05;;
3465;SDS011;1747;48.884;9.160;2022-07-29T05:20:29;8.20;;;7.30;;
3465;SDS011;1747;48.884;9.160;2022-07-29T05:22:58;7.47;;;6.68;;
3465;SDS011;1747;48.884;9.160;2022-07-29T05:25:26;7.43;;;6.60;;
3465;SDS011;1747;48.884;9.160;2022-07-29T05:27:54;11.00;;;6.90;;
3465;SDS011;1747;48.884;9.160;2022-07-29T05:30:21;10.57;;;7.10;;
3465;SDS011;1747;48.884;9.160;2022-07-29T05:32:48;7.95;;;6.97;;
3465;SDS011;1747;48.884;9.160;2022-07-29T05:35:15;8.05;;;6.85;;
3465;SDS011;1747;48.884;9.160;2022-07-29T05:37:44;8.35;;;6.70;;
3465;SDS011;1747;48.884;9.160;2022-07-29T05:40:10;8.30;;;7.47;;
3465;SDS011;1747;48.884;9.160;2022-07-29T05:42:37;8.35;;;7.45;;
3465;SDS011;1747;48.884;9.160;2022-07-29T05:45:04;9.15;;;6.65;;
3465;SDS011;1747;48.884;9.160;2022-07-29T05:47:32;13.50;;;7.45;;
3465;SDS011;1747;48.884;9.160;2022-07-29T05:49:58;12.73;;;8.10;;
3465;SDS011;1747;48.884;9.160;2022-07-29T05:52:25;10.82;;;7.25;;
3465;SDS011;1747;48.884;9.160;2022-07-29T05:54:53;12.40;;;7.80;;
3465;SDS011;1747;48.884;9.160;2022-07-29T05:57:22;11.25;;;7.18;;
3465;SDS011;1747;48.884;9.160;2022-07-29T05:59:50;10.40;;;7.03;;
3465;SDS011;1747;48.884;9.160;2022-07-29T06:02:17;7.88;;;6.80;;
3465;SDS011;1747;48.884;9.160;2022-07-29T06:04:44;8.18;;;6.75;;
3465;SDS011;1747;48.884;9.160;2022-07-29T06:07:11;10.50;;;6.90;;
3465;SDS011;1747;48.884;9.160;2022-07-29T06:09:38;8.45;;;6.35;;
3465;SDS011;1747;48.884;9.160;2022-07-29T06:12:06;9.18;;;7.28;;
3465;SDS011;1747;48.884;9.160;2022-07-29T06:14:33;10.38;;;7.00;;
3465;SDS011;1747;48.884;9.160;2022-07-29T06:17:03;10.73;;;6.97;;
3465;SDS011;1747;48.884;9.160;2022-07-29T06:19:30;10.52;;;6.50;;
3465;SDS011;1747;48.884;9.160;2022-07-29T06:21:57;8.98;;;6.78;;
3465;SDS011;1747;48.884;9.160;2022-07-29T06:24:24;10.82;;;6.57;;
3465;SDS011;1747;48.884;9.160;2022-07-29T06:26:50;6.80;;;5.97;;
3465;SDS011;1747;48.884;9.160;2022-07-29T06:29:19;11.43;;;6.05;;
3465;SDS011;1747;48.884;9.160;2022-07-29T06:31:46;7.70;;;5.78;;
3465;SDS011;1747;48.884;9.160;2022-07-29T06:34:12;7.07;;;5.75;;
3465;SDS011;1747;48.884;9.160;2022-07-29T06:36:40;10.02;;;6.10;;
3465;SDS011;1747;48.884;9.160;2022-07-29T06:39:07;5.65;;;5.10;;
3465;SDS011;1747;48.884;9.160;2022-07-29T06:41:34;7.70;;;5.18;;
3465;SDS011;1747;48.884;9.160;2022-07-29T06:44:01;8.90;;;5.03;;
3465;SDS011;1747;48.884;9.160;2022-07-29T06:46:30;6.53;;;5.10;;
3465;SDS011;1747;48.884;9.160;2022-07-29T06:48:58;6.40;;;4.90;;
3465;SDS011;1747;48.884;9.160;2022-07-29T06:51:26;10.48;;;5.53;;
3465;SDS011;1747;48.884;9.160;2022-07-29T06:53:53;6.85;;;5.68;;
3465;SDS011;1747;48.884;9.160;2022-07-29T06:56:20;8.63;;;5.75;;
3465;SDS011;1747;48.884;9.160;2022-07-29T06:58:47;7.57;;;4.90;;
3465;SDS011;1747;48.884;9.160;2022-07-29T07:01:13;5.70;;;4.65;;
3465;SDS011;1747;48.884;9.160;2022-07-29T07:03:42;7.43;;;5.28;;
3465;SDS011;1747;48.884;9.160;2022-07-29T07:06:08;5.38;;;4.88;;
3465;SDS011;1747;48.884;9.160;2022-07-29T07:08:35;5.95;;;5.15;;
3465;SDS011;1747;48.884;9.160;2022-07-29T07:11:02;8.43;;;5.05;;
3465;SDS011;1747;48.884;9.160;2022-07-29T07:13:31;7.88;;;4.78;;
3465;SDS011;1747;48.884;9.160;2022-07-29T07:15:59;6.10;;;4.85;;
3465;SDS011;1747;48.884;9.160;2022-07-29T07:18:26;7.10;;;4.57;;
3465;SDS011;1747;48.884;9.160;2022-07-29T07:20:55;5.30;;;4.75;;
3465;SDS011;1747;48.884;9.160;2022-07-29T07:23:22;8.35;;;5.00;;
3465;SDS011;1747;48.884;9.160;2022-07-29T07:25:49;7.82;;;4.75;;
3465;SDS011;1747;48.884;9.160;2022-07-29T07:28:16;5.22;;;4.50;;
3465;SDS011;1747;48.884;9.160;2022-07-29T07:30:44;7.85;;;4.57;;
3465;SDS011;1747;48.884;9.160;2022-07-29T07:33:11;7.20;;;4.43;;
3465;SDS011;1747;48.884;9.160;2022-07-29T07:35:37;6.43;;;4.38;;
3465;SDS011;1747;48.884;9.160;2022-07-29T07:38:06;5.18;;;4.68;;
3465;SDS011;1747;48.884;9.160;2022-07-29T07:40:33;5.80;;;5.20;;
3465;SDS011;1747;48.884;9.160;2022-07-29T07:42:59;5.28;;;4.47;;
3465;SDS011;1747;48.884;9.160;2022-07-29T07:45:27;4.90;;;4.50;;
3465;SDS011;1747;48.884;9.160;2022-07-29T07:47:54;7.28;;;4.88;;
3465;SDS011;1747;48.884;9.160;2022-07-29T07:50:21;10.30;;;5.00;;
3465;SDS011;1747;48.884;9.160;2022-07-29T07:52:48;5.30;;;4.68;;
3465;SDS011;1747;48.884;9.160;2022-07-29T07:55:18;9.38;;;4.78;;
3465;SDS011;1747;48.884;9.160;2022-07-29T07:57:45;5.35;;;4.78;;
3465;SDS011;1747;48.884;9.160;2022-07-29T08:00:12;8.02;;;4.93;;
3465;SDS011;1747;48.884;9.160;2022-07-29T08:02:40;8.10;;;5.60;;
3465;SDS011;1747;48.884;9.160;2022-07-29T08:05:08;7.95;;;4.88;;
3465;SDS011;1747;48.884;9.160;2022-07-29T08:07:37;6.60;;;4.85;;
3465;SDS011;1747;48.884;9.160;2022-07-29T08:10:04;6.50;;;5.30;;
3465;SDS011;1747;48.884;9.160;2022-07-29T08:12:32;5.90;;;4.43;;
3465;SDS011;1747;48.884;9.160;2022-07-29T08:14:59;9.95;;;5.05;;
3465;SDS011;1747;48.884;9.160;2022-07-29T08:17:26;6.70;;;4.50;;
3465;SDS011;1747;48.884;9.160;2022-07-29T08:19:53;7.10;;;5.43;;
3465;SDS011;1747;48.884;9.160;2022-07-29T08:22:20;5.55;;;5.00;;
3465;SDS011;1747;48.884;9.160;2022-07-29T08:24:47;8.32;;;5.43;;
3465;SDS011;1747;48.884;9.160;2022-07-29T08:27:19;11.05;;;4.90;;
3465;SDS011;1747;48.884;9.160;2022-07-29T08:29:48;8.48;;;5.43;;
3465;SDS011;1747;48.884;9.160;2022-07-29T08:32:14;7.32;;;5.18;;
3465;SDS011;1747;48.884;9.160;2022-07-29T08:34:41;7.05;;;5.47;;
3465;SDS011;1747;48.884;9.160;2022-07-29T08:37:11;5.90;;;5.30;;
3465;SDS011;1747;48.884;9.160;2022-07-29T08:39:38;13.13;;;5.45;;
3465;SDS011;1747;48.884;9.160;2022-07-29T08:42:05;9.18;;;4.65;;
3465;SDS011;1747;48.884;9.160;2022-07-29T08:44:32;7.03;;;5.30;;
3465;SDS011;1747;48.884;9.160;2022-07-29T08:47:02;5.03;;;4.53;;
3465;SDS011;1747;48.884;9.160;2022-07-29T08:49:29;4.75;;;4.25;;
3465;SDS011;1747;48.884;9.160;2022-07-29T08:51:56;6.60;;;4.55;;
3465;SDS011;1747;48.884;9.160;2022-07-29T08:54:24;7.97;;;4.50;;
3465;SDS011;1747;48.884;9.160;2022-07-29T08:56:52;7.03;;;4.32;;
3465;SDS011;1747;48.884;9.160;2022-07-29T08:59:19;7.47;;;4.63;;
3465;SDS011;1747;48.884;9.160;2022-07-29T09:01:48;5.18;;;4.03;;
3465;SDS011;1747;48.884;9.160;2022-07-29T09:04:20;9.90;;;4.97;;
3465;SDS011;1747;48.884;9.160;2022-07-29T09:06:51;5.28;;;4.30;;
3465;SDS011;1747;48.884;9.160;2022-07-29T09:09:20;5.60;;;4.78;;
3465;SDS011;1747;48.884;9.160;2022-07-29T09:11:47;7.07;;;4.70;;
3465;SDS011;1747;48.884;9.160;2022-07-29T09:14:14;7.15;;;4.95;;
3465;SDS011;1747;48.884;9.160;2022-07-29T09:16:44;5.22;;;4.35;;
3465;SDS011;1747;48.884;9.160;2022-07-29T09:19:25;12.55;;;4.80;;
3465;SDS011;1747;48.884;9.160;2022-07-29T09:21:53;6.30;;;5.13;;
3465;SDS011;1747;48.884;9.160;2022-07-29T09:24:24;7.32;;;5.50;;
3465;SDS011;1747;48.884;9.160;2022-07-29T09:26:52;6.25;;;5.65;;
3465;SDS011;1747;48.884;9.160;2022-07-29T09:29:20;8.70;;;5.28;;
3465;SDS011;1747;48.884;9.160;2022-07-29T09:31:50;6.65;;;4.43;;
3465;SDS011;1747;48.884;9.160;2022-07-29T09:34:21;6.53;;;4.88;;
3465;SDS011;1747;48.884;9.160;2022-07-29T09:36:51;5.32;;;4.57;;
3465;SDS011;1747;48.884;9.160;2022-07-29T09:39:28;6.68;;;4.97;;
3465;SDS011;1747;48.884;9.160;2022-07-29T09:41:57;11.30;;;5.10;;
3465;SDS011;1747;48.884;9.160;2022-07-29T09:44:25;5.93;;;4.72;;
3465;SDS011;1747;48.884;9.160;2022-07-29T09:46:53;10.60;;;4.93;;
3465;SDS011;1747;48.884;9.160;2022-07-29T09:49:24;6.32;;;4.63;;
3465;SDS011;1747;48.884;9.160;2022-07-29T09:52:02;5.47;;;4.97;;
3465;SDS011;1747;48.884;9.160;2022-07-29T09:54:31;10.30;;;4.70;;
3465;SDS011;1747;48.884;9.160;2022-07-29T09:57:02;7.40;;;4.70;;
3465;SDS011;1747;48.884;9.160;2022-07-29T09:59:30;10.48;;;5.00;;
3465;SDS011;1747;48.884;9.160;2022-07-29T10:01:57;6.50;;;5.28;;
3465;SDS011;1747;48.884;9.160;2022-07-29T10:04:28;5.22;;;4.70;;
3465;SDS011;1747;48.884;9.160;2022-07-29T10:07:05;5.72;;;4.75;;
3465;SDS011;1747;48.884;9.160;2022-07-29T10:09:32;9.20;;;4.88;;
3465;SDS011;1747;48.884;9.160;2022-07-29T10:12:03;6.80;;;5.00;;
3465;SDS011;1747;48.884;9.160;2022-07-29T10:14:32;8.25;;;5.07;;
3465;SDS011;1747;48.884;9.160;2022-07-29T10:16:59;9.10;;;4.63;;
3465;SDS011;1747;48.884;9.160;2022-07-29T10:19:27;6.85;;;4.80;;
3465;SDS011;1747;48.884;9.160;2022-07-29T10:21:56;7.57;;;4.57;;
3465;SDS011;1747;48.884;9.160;2022-07-29T10:24:25;7.00;;;5.28;;
3465;SDS011;1747;48.884;9.160;2022-07-29T10:26:54;12.88;;;5.10;;
3465;SDS011;1747;48.884;9.160;2022-07-29T10:29:22;8.88;;;5.07;;
3465;SDS011;1747;48.884;9.160;2022-07-29T10:31:52;8.13;;;5.15;;
3465;SDS011;1747;48.884;9.160;2022-07-29T10:34:42;14.00;;;5.18;;
3465;SDS011;1747;48.884;9.160;2022-07-29T10:37:28;12.43;;;5.38;;
3465;SDS011;1747;48.884;9.160;2022-07-29T10:40:07;7.72;;;5.45;;
3465;SDS011;1747;48.884;9.160;2022-07-29T10:42:58;11.15;;;5.45;;
3465;SDS011;1747;48.884;9.160;2022-07-29T10:45:36;7.40;;;5.10;;
3465;SDS011;1747;48.884;9.160;2022-07-29T10:48:03;8.48;;;4.88;;
3465;SDS011;1747;48.884;9.160;2022-07-29T10:53:20;11.00;;;5.57;;
3465;SDS011;1747;48.884;9.160;2022-07-29T10:55:48;14.05;;;5.20;;
3465;SDS011;1747;48.884;9.160;2022-07-29T10:58:17;7.30;;;4.95;;
3465;SDS011;1747;48.884;9.160;2022-07-29T11:00:45;10.38;;;5.45;;
3465;SDS011;1747;48.884;9.160;2022-07-29T11:06:14;12.02;;;5.20;;
3465;SDS011;1747;48.884;9.160;2022-07-29T11:08:41;7.82;;;4.80;;
3465;SDS011;1747;48.884;9.160;2022-07-29T11:14:05;9.65;;;4.82;;
3465;SDS011;1747;48.884;9.160;2022-07-29T11:19:27;9.18;;;4.80;;
3465;SDS011;1747;48.884;9.160;2022-07-29T11:21:54;5.43;;;4.50;;
3465;SDS011;1747;48.884;9.160;2022-07-29T11:24:23;8.80;;;5.35;;
3465;SDS011;1747;48.884;9.160;2022-07-29T11:27:14;10.85;;;5.03;;
3465;SDS011;1747;48.884;9.160;2022-07-29T11:29:48;6.85;;;5.35;;
3465;SDS011;1747;48.884;9.160;2022-07-29T11:32:17;10.18;;;5.85;;
3465;SDS011;1747;48.884;9.160;2022-07-29T11:34:46;10.57;;;5.90;;
3465;SDS011;1747;48.884;9.160;2022-07-29T11:37:17;7.55;;;5.80;;
3465;SDS011;1747;48.884;9.160;2022-07-29T11:39:47;8.77;;;6.35;;
3465;SDS011;1747;48.884;9.160;2022-07-29T11:45:22;6.82;;;5.35;;
3465;SDS011;1747;48.884;9.160;2022-07-29T11:48:17;9.68;;;5.90;;
3465;SDS011;1747;48.884;9.160;2022-07-29T11:50:45;8.48;;;5.68;;
3465;SDS011;1747;48.884;9.160;2022-07-29T11:53:12;7.05;;;5.63;;
3465;SDS011;1747;48.884;9.160;2022-07-29T11:55:40;7.43;;;5.40;;
3465;SDS011;1747;48.884;9.160;2022-07-29T11:58:08;8.57;;;5.38;;
3465;SDS011;1747;48.884;9.160;2022-07-29T12:00:36;7.63;;;5.60;;
3465;SDS011;1747;48.884;9.160;2022-07-29T12:03:05;7.78;;;6.15;;
3465;SDS011;1747;48.884;9.160;2022-07-29T12:05:45;11.90;;;7.45;;
3465;SDS011;1747;48.884;9.160;2022-07-29T12:08:13;10.88;;;6.40;;
3465;SDS011;1747;48.884;9.160;2022-07-29T12:10:44;8.38;;;6.25;;
3465;SDS011;1747;48.884;9.160;2022-07-29T12:13:14;9.07;;;5.90;;
3465;SDS011;1747;48.884;9.160;2022-07-29T12:15:41;10.45;;;6.28;;
3465;SDS011;1747;48.884;9.160;2022-07-29T12:18:17;6.88;;;5.40;;
3465;SDS011;1747;48.884;9.160;2022-07-29T12:20:45;6.88;;;5.20;;
3465;SDS011;1747;48.884;9.160;2022-07-29T12:23:13;12.60;;;5.32;;
3465;SDS011;1747;48.884;9.160;2022-07-29T12:25:42;5.75;;;5.15;;
3465;SDS011;1747;48.884;9.160;2022-07-29T12:28:10;10.20;;;5.35;;
3465;SDS011;1747;48.884;9.160;2022-07-29T12:30:40;9.13;;;5.47;;
3465;SDS011;1747;48.884;9.160;2022-07-29T12:33:17;6.25;;;5.53;;
3465;SDS011;1747;48.884;9.160;2022-07-29T12:35:47;9.98;;;5.70;;
3465;SDS011;1747;48.884;9.160;2022-07-29T12:38:16;8.90;;;6.32;;
3465;SDS011;1747;48.884;9.160;2022-07-29T12:40:44;7.32;;;5.75;;
3465;SDS011;1747;48.884;9.160;2022-07-29T12:43:13;11.85;;;6.28;;
3465;SDS011;1747;48.884;9.160;2022-07-29T12:45:43;8.25;;;5.88;;
3465;SDS011;1747;48.884;9.160;2022-07-29T12:48:11;7.60;;;6.28;;
3465;SDS011;1747;48.884;9.160;2022-07-29T12:50:52;10.88;;;6.68;;
3465;SDS011;1747;48.884;9.160;2022-07-29T12:53:20;11.50;;;6.15;;
3465;SDS011;1747;48.884;9.160;2022-07-29T12:55:47;8.32;;;6.20;;
3465;SDS011;1747;48.884;9.160;2022-07-29T12:58:26;7.50;;;5.60;;
3465;SDS011;1747;48.884;9.160;2022-07-29T13:01:04;6.05;;;5.43;;
3465;SDS011;1747;48.884;9.160;2022-07-29T13:03:41;10.52;;;5.55;;
3465;SDS011;1747;48.884;9.160;2022-07-29T13:08:58;10.73;;;5.32;;
3465;SDS011;1747;48.884;9.160;2022-07-29T13:11:27;7.72;;;5.38;;
3465;SDS011;1747;48.884;9.160;2022-07-29T13:13:58;6.82;;;4.22;;
3465;SDS011;1747;48.884;9.160;2022-07-29T13:16:26;6.68;;;4.38;;
3465;SDS011;1747;48.884;9.160;2022-07-29T13:19:06;5.20;;;4.20;;
3465;SDS011;1747;48.884;9.160;2022-07-29T13:21:35;4.95;;;4.30;;
3465;SDS011;1747;48.884;9.160;2022-07-29T13:24:02;6.28;;;4.35;;
3465;SDS011;1747;48.884;9.160;2022-07-29T13:26:30;5.68;;;3.80;;
3465;SDS011;1747;48.884;9.160;2022-07-29T13:28:57;6.03;;;4.28;;
3465;SDS011;1747;48.884;9.160;2022-07-29T13:31:24;5.63;;;4.00;;
3465;SDS011;1747;48.884;9.160;2022-07-29T13:33:53;5.07;;;3.63;;
3465;SDS011;1747;48.884;9.160;2022-07-29T13:36:20;4.30;;;3.83;;
3465;SDS011;1747;48.884;9.160;2022-07-29T13:38:47;7.00;;;4.18;;
3465;SDS011;1747;48.884;9.160;2022-07-29T13:41:13;6.13;;;4.03;;
3465;SDS011;1747;48.884;9.160;2022-07-29T13:43:40;5.50;;;3.95;;
3465;SDS011;1747;48.884;9.160;2022-07-29T13:46:07;8.15;;;4.20;;
3465;SDS011;1747;48.884;9.160;2022-07-29T13:48:35;8.10;;;4.47;;
3465;SDS011;1747;48.884;9.160;2022-07-29T13:51:02;5.50;;;4.53;;
3465;SDS011;1747;48.884;9.160;2022-07-29T13:53:29;5.88;;;4.07;;
3465;SDS011;1747;48.884;9.160;2022-07-29T13:55:56;7.13;;;3.97;;
3465;SDS011;1747;48.884;9.160;2022-07-29T13:58:23;6.57;;;4.05;;
3465;SDS011;1747;48.884;9.160;2022-07-29T14:00:50;7.25;;;4.70;;
3465;SDS011;1747;48.884;9.160;2022-07-29T14:03:17;4.93;;;4.28;;
3465;SDS011;1747;48.884;9.160;2022-07-29T14:05:45;6.57;;;4.68;;
3465;SDS011;1747;48.884;9.160;2022-07-29T14:08:12;8.10;;;4.45;;
3465;SDS011;1747;48.884;9.160;2022-07-29T14:10:38;5.20;;;4.70;;
3465;SDS011;1747;48.884;9.160;2022-07-29T14:13:05;7.00;;;4.85;;
3465;SDS011;1747;48.884;9.160;2022-07-29T14:15:32;7.70;;;5.00;;
3465;SDS011;1747;48.884;9.160;2022-07-29T14:18:00;8.25;;;4.97;;
3465;SDS011;1747;48.884;9.160;2022-07-29T14:20:27;8.50;;;4.70;;
3465;SDS011;1747;48.884;9.160;2022-07-29T14:22:56;6.88;;;5.00;;
3465;SDS011;1747;48.884;9.160;2022-07-29T14:25:23;7.82;;;4.60;;
3465;SDS011;1747;48.884;9.160;2022-07-29T14:27:50;6.07;;;4.70;;
3465;SDS011;1747;48.884;9.160;2022-07-29T14:30:18;4.70;;;4.30;;
3465;SDS011;1747;48.884;9.160;2022-07-29T14:32:45;5.80;;;4.55;;
3465;SDS011;1747;48.884;9.160;2022-07-29T14:35:12;5.57;;;4.32;;
3465;SDS011;1747;48.884;9.160;2022-07-29T14:37:39;7.80;;;4.53;;
3465;SDS011;1747;48.884;9.160;2022-07-29T14:40:08;7.18;;;5.13;;
3465;SDS011;1747;48.884;9.160;2022-07-29T14:42:37;6.75;;;5.43;;
3465;SDS011;1747;48.884;9.160;2022-07-29T14:45:05;8.80;;;5.93;;
3465;SDS011;1747;48.884;9.160;2022-07-29T14:47:33;7.40;;;4.93;;
3465;SDS011;1747;48.884;9.160;2022-07-29T14:50:00;6.65;;;5.28;;
3465;SDS011;1747;48.884;9.160;2022-07-29T14:52:28;5.53;;;4.90;;
3465;SDS011;1747;48.884;9.160;2022-07-29T14:54:55;5.82;;;4.82;;
3465;SDS011;1747;48.884;9.160;2022-07-29T14:57:23;6.82;;;4.57;;
3465;SDS011;1747;48.884;9.160;2022-07-29T14:59:50;6.25;;;4.10;;
3465;SDS011;1747;48.884;9.160;2022-07-29T15:02:17;7.70;;;4.07;;
3465;SDS011;1747;48.884;9.160;2022-07-29T15:04:44;5.35;;;4.22;;
3465;SDS011;1747;48.884;9.160;2022-07-29T15:07:12;3.83;;;3.45;;
3465;SDS011;1747;48.884;9.160;2022-07-29T15:09:39;6.32;;;3.90;;
3465;SDS011;1747;48.884;9.160;2022-07-29T15:12:06;4.07;;;3.67;;
3465;SDS011;1747;48.884;9.160;2022-07-29T15:14:36;6.75;;;3.63;;
3465;SDS011;1747;48.884;9.160;2022-07-29T15:17:03;4.78;;;3.10;;
3465;SDS011;1747;48.884;9.160;2022-07-29T15:19:30;6.93;;;3.10;;
3465;SDS011;1747;48.884;9.160;2022-07-29T15:21:57;2.88;;;2.47;;
3465;SDS011;1747;48.884;9.160;2022-07-29T15:24:44;6.25;;;2.42;;
3465;SDS011;1747;48.884;9.160;2022-07-29T15:27:12;7.03;;;2.70;;
3465;SDS011;1747;48.884;9.160;2022-07-29T15:29:41;5.65;;;2.45;;
3465;SDS011;1747;48.884;9.160;2022-07-29T15:32:08;6.20;;;2.25;;
3465;SDS011;1747;48.884;9.160;2022-07-29T15:34:36;5.43;;;2.42;;
3465;SDS011;1747;48.884;9.160;2022-07-29T15:37:04;4.43;;;2.63;;
3465;SDS011;1747;48.884;9.160;2022-07-29T15:39:31;4.18;;;2.10;;
3465;SDS011;1747;48.884;9.160;2022-07-29T15:41:58;8.25;;;2.45;;
3465;SDS011;1747;48.884;9.160;2022-07-29T15:44:25;3.53;;;2.40;;
3465;SDS011;1747;48.884;9.160;2022-07-29T15:46:53;4.90;;;2.55;;